Saint-Pascal, Canada
Current Conditions -  °F | °C
As of 6:53 AM on Wednesday 28 Jan 2015 (Local Time) from KFVE Reporting Station
Light Snow Light Snow  
Wind Chill: -10°   Ceiling: 1400
Heat Index:   Visibility: 1mi
Dew Point:   Wind: 17mph
Humidity: 80%   Direction: 350°N
Pressure: 29.8"   Gusts: 24mph
Location:  47.52°N, 69.82°W
Report Text: KFVE 281153Z AUTO 35015G21KT 1SM -SN VV014 M13/M16 A2980 RMK AO2 SLP113 P0000 60000 T11331161 11133 21133 51007
Loading
Personal Weather Stations






























Interactive Weather Map New forecast layout! Learn more

10-Day Weather Forecast

Advertisements
Track Severe Weather on mobile